Tuesday, July 25, 2017, 2:39 AM EDT

KPTB, Petersburg, Dinwiddie County Airport

Location: Petersburg, VA, United States Lat: 37.183
Local Time: 2:39 AM EDT ( 6:39 GMT) Lon: -77.517
Time Zone: US/Eastern Elev: 193 ft

Show me the last for .
Show Decoded

2017-07-25 02:15 METAR KPTB 250615Z AUTO 00000KT 10SM CLR 24/20 A2994 RMK AO2 T02400200 =
2017-07-25 01:55 METAR KPTB 250555Z AUTO 00000KT 10SM CLR 24/20 A2994 RMK AO2 T02370201 10273
                 20221 =
2017-07-25 01:35 METAR KPTB 250535Z AUTO 00000KT 10SM CLR 24/20 A2994 RMK AO2 T02400201 =
2017-07-25 01:15 METAR KPTB 250515Z AUTO 00000KT 10SM CLR 25/20 A2993 RMK AO2 T02470201 =
2017-07-25 00:55 METAR KPTB 250455Z AUTO 00000KT 10SM CLR 25/20 A2993 RMK AO2 T02460201 403480219
                 =
2017-07-25 00:35 METAR KPTB 250435Z AUTO 00000KT 10SM CLR 24/20 A2992 RMK AO2 T02440201 =
2017-07-25 00:15 METAR KPTB 250415Z AUTO 00000KT 10SM CLR 25/20 A2991 RMK AO2 T02490200 =
2017-07-24 23:55 METAR KPTB 250355Z AUTO 00000KT 10SM CLR 25/20 A2991 RMK AO2 T02470199 =
2017-07-24 23:35 METAR KPTB 250335Z AUTO 00000KT 10SM CLR 24/20 A2991 RMK AO2 T02360195 =
2017-07-24 23:15 METAR KPTB 250315Z AUTO 00000KT 10SM CLR 22/20 A2990 RMK AO2 T02240197 =
2017-07-24 22:55 METAR KPTB 250255Z AUTO 00000KT 10SM CLR 22/20 A2990 RMK AO2 T02240197 =
2017-07-24 22:35 METAR KPTB 250235Z AUTO 00000KT 10SM CLR 23/20 A2990 RMK AO2 T02250199 =
2017-07-24 22:15 METAR KPTB 250215Z AUTO 00000KT 10SM CLR 24/20 A2990 RMK AO2 T02360202 =
2017-07-24 21:55 METAR KPTB 250155Z AUTO 00000KT 10SM CLR 23/20 A2990 RMK AO2 T02340202 =
2017-07-24 21:35 METAR KPTB 250135Z AUTO 00000KT 10SM CLR 24/21 A2989 RMK AO2 T02400211 =
2017-07-24 21:15 METAR KPTB 250115Z AUTO 00000KT 10SM CLR 23/21 A2988 RMK AO2 T02330205 =
2017-07-24 20:55 METAR KPTB 250055Z AUTO 00000KT 10SM CLR 24/21 A2988 RMK AO2 T02420208 =
2017-07-24 20:35 METAR KPTB 250035Z AUTO 00000KT 10SM CLR 26/21 A2987 RMK AO2 T02560206 =
2017-07-24 20:15 METAR KPTB 250015Z AUTO 00000KT 10SM CLR 26/21 A2987 RMK AO2 T02630212 =
2017-07-24 19:55 METAR KPTB 242355Z AUTO 00000KT 10SM CLR 28/21 A2985 RMK AO2 T02750212 10348
                 20275 =
2017-07-24 19:35 METAR KPTB 242335Z AUTO 00000KT 10SM CLR 30/20 A2985 RMK AO2 T02990195 =
2017-07-24 19:15 METAR KPTB 242315Z AUTO 00000KT 10SM CLR 32/19 A2985 RMK AO2 T03150189 =
2017-07-24 18:55 METAR KPTB 242255Z AUTO 00000KT 10SM CLR 33/18 A2985 RMK AO2 T03270182 =
2017-07-24 18:35 METAR KPTB 242235Z AUTO 00000KT 10SM CLR 33/18 A2984 RMK AO2 T03260180 =
2017-07-24 18:15 METAR KPTB 242215Z AUTO 00000KT 10SM CLR 33/18 A2984 RMK AO2 T03300176 =
2017-07-24 17:55 METAR KPTB 242155Z AUTO 00000KT 10SM SCT060 SCT070 SCT090 33/18 A2984 RMK AO2
                 T03340178 =
2017-07-24 17:35 METAR KPTB 242135Z AUTO 00000KT 10SM OVC060 33/19 A2985 RMK AO2 T03270188 =
2017-07-24 17:15 METAR KPTB 242115Z AUTO 00000KT 10SM BKN060 BKN085 OVC120 32/18 A2985 RMK AO2
                 T03210183 =
2017-07-24 16:55 METAR KPTB 242055Z AUTO 00000KT 10SM BKN060 BKN085 BKN110 32/18 A2984 RMK AO2
                 T03210180 =
2017-07-24 16:35 METAR KPTB 242035Z AUTO 00000KT 10SM SCT060 BKN080 BKN090 33/17 A2985 RMK AO2
                 T03320169 =
2017-07-24 16:15 METAR KPTB 242015Z AUTO 00000KT 10SM SCT060 BKN080 BKN090 34/16 A2985 RMK AO2
                 T03350164 =
2017-07-24 15:55 METAR KPTB 241955Z AUTO 00000KT 10SM SCT060 SCT085 34/16 A2985 RMK AO2 T03360164
                 =
2017-07-24 15:35 METAR KPTB 241935Z AUTO 00000KT 10SM SCT060 SCT085 34/16 A2985 RMK AO2 T03350162
                 =
2017-07-24 15:15 METAR KPTB 241915Z AUTO 00000KT 10SM CLR 34/16 A2985 RMK AO2 T03440162 =
2017-07-24 14:55 METAR KPTB 241855Z AUTO 00000KT 10SM CLR 33/15 A2985 RMK AO2 T03340152 =
2017-07-24 14:15 METAR KPTB 241815Z AUTO 00000KT 10SM CLR 34/16 A2985 RMK AO2 T03360156 =
2017-07-24 13:55 METAR KPTB 241755Z AUTO 00000KT 10SM CLR 33/17 A2985 RMK AO2 T03320165 10334
                 20230 =
2017-07-24 13:35 METAR KPTB 241735Z AUTO 00000KT 10SM CLR 33/17 A2986 RMK AO2 T03330172 =
2017-07-24 13:15 METAR KPTB 241715Z AUTO 00000KT 10SM SCT045 32/17 A2986 RMK AO2 T03240167 =
2017-07-24 12:55 METAR KPTB 241655Z AUTO 00000KT 10SM SCT045 32/18 A2987 RMK AO2 T03180181 =
2017-07-24 12:35 METAR KPTB 241635Z AUTO 00000KT 10SM CLR 32/18 A2987 RMK AO2 T03190184 =
2017-07-24 12:15 METAR KPTB 241615Z AUTO 00000KT 10SM CLR 31/19 A2987 RMK AO2 T03090192 =
2017-07-24 11:55 METAR KPTB 241555Z AUTO 00000KT 10SM CLR 31/19 A2987 RMK AO2 T03050194 =
2017-07-24 11:35 METAR KPTB 241535Z AUTO 25008KT 10SM CLR 30/20 A2987 RMK AO2 T02990200 =
2017-07-24 11:15 METAR KPTB 241515Z AUTO 00000KT 10SM CLR 29/20 A2987 RMK AO2 T02930204 =
2017-07-24 10:55 METAR KPTB 241455Z AUTO 00000KT 10SM CLR 28/20 A2987 RMK AO2 T02840204 =
2017-07-24 10:35 METAR KPTB 241435Z AUTO 00000KT 10SM CLR 28/20 A2987 RMK AO2 T02820203 =
2017-07-24 10:15 METAR KPTB 241415Z AUTO 25009KT 10SM CLR 28/20 A2987 RMK AO2 T02790200 =
2017-07-24 09:55 METAR KPTB 241355Z AUTO 00000KT 10SM SCT120 27/20 A2987 RMK AO2 T02740199 =
2017-07-24 09:35 METAR KPTB 241335Z AUTO 00000KT 10SM CLR 28/20 A2986 RMK AO2 T02750203 =
2017-07-24 09:15 METAR KPTB 241315Z AUTO 00000KT 10SM CLR 25/21 A2986 RMK AO2 T02540205 =
2017-07-24 08:55 METAR KPTB 241255Z AUTO 00000KT 10SM CLR 24/20 A2986 RMK AO2 T02410201 =
2017-07-24 08:35 METAR KPTB 241235Z AUTO 00000KT 10SM CLR 24/20 A2986 RMK AO2 T02370200 =
2017-07-24 08:15 METAR KPTB 241215Z AUTO 00000KT 10SM SCT110 23/20 A2985 RMK AO2 LTG DSNT SE
                 T02330200 =
2017-07-24 07:55 METAR KPTB 241155Z AUTO 00000KT 10SM SCT110 23/20 A2984 RMK AO2 T02290198 10230
                 20219 =
2017-07-24 07:35 METAR KPTB 241135Z AUTO 00000KT 10SM SCT110 23/20 A2985 RMK AO2 T02250197 =
2017-07-24 07:15 METAR KPTB 241115Z AUTO 00000KT 10SM BKN110 22/20 A2984 RMK AO2 T02230197 =
2017-07-24 06:55 METAR KPTB 241055Z AUTO 00000KT 10SM SCT110 22/20 A2982 RMK AO2 T02210196 =
2017-07-24 06:35 METAR KPTB 241035Z AUTO 00000KT 10SM SCT120 22/20 A2982 RMK AO2 T02200195 =
2017-07-24 06:15 METAR KPTB 241015Z AUTO 00000KT 10SM SCT120 22/20 A2982 RMK AO2 T02200195 =
2017-07-24 05:55 METAR KPTB 240955Z AUTO 00000KT 10SM CLR 22/20 A2982 RMK AO2 T02200195 =
2017-07-24 05:35 METAR KPTB 240935Z AUTO 00000KT 10SM CLR 22/20 A2982 RMK AO2 T02200195 =
2017-07-24 05:15 METAR KPTB 240915Z AUTO 00000KT 10SM CLR 22/20 A2981 RMK AO2 T02210195 =
2017-07-24 04:55 METAR KPTB 240855Z AUTO 00000KT 10SM CLR 22/20 A2981 RMK AO2 T02220196 =
2017-07-24 04:35 METAR KPTB 240835Z AUTO 00000KT 10SM CLR 22/20 A2981 RMK AO2 T02220197 =
2017-07-24 04:15 METAR KPTB 240815Z AUTO 00000KT 10SM CLR 22/20 A2982 RMK AO2 T02230200 =
2017-07-24 03:55 METAR KPTB 240755Z AUTO 00000KT 10SM CLR 22/20 A2981 RMK AO2 T02230200 =
2017-07-24 03:35 METAR KPTB 240735Z AUTO 00000KT 10SM CLR 22/20 A2982 RMK AO2 T02230200 =
2017-07-24 03:15 METAR KPTB 240715Z AUTO 00000KT 10SM CLR 23/20 A2983 RMK AO2 T02250200 =
2017-07-24 02:55 METAR KPTB 240655Z AUTO 00000KT 10SM SCT070 23/20 A2983 RMK AO2 T02280201 =

Support USWX by starting your Amazon purchase here.